createdAt,value
2023-02-09T00:00:10.003Z,102884.22
2023-02-09T00:02:40.162Z,102900.53
2023-02-09T00:05:09.848Z,102894.34
2023-02-09T00:07:38.428Z,102882.41
2023-02-09T00:10:07.726Z,102879.84
2023-02-09T00:12:54.863Z,102886.91
2023-02-09T00:15:24.775Z,102887.63
2023-02-09T00:17:53.349Z,102877.78
2023-02-09T00:20:22.093Z,102884.72
2023-02-09T00:22:50.666Z,102882.91
2023-02-09T00:25:19.350Z,102876.25
2023-02-09T00:27:47.915Z,102883.09
2023-02-09T00:30:16.605Z,102871.81
2023-02-09T00:32:46.542Z,102872.31
2023-02-09T00:35:15.103Z,102866.47
2023-02-09T00:37:43.785Z,102878.63
2023-02-09T00:40:13.080Z,102868.69
2023-02-09T00:42:41.622Z,102870.59
2023-02-09T00:45:10.781Z,102875.13
2023-02-09T00:47:39.434Z,102873.81
2023-02-09T00:50:10.081Z,102870.56
2023-02-09T00:52:38.677Z,102874.06
2023-02-09T00:55:07.798Z,102864.94
2023-02-09T00:57:36.510Z,102871.38
2023-02-09T01:00:07.289Z,102867.63
2023-02-09T01:02:36.193Z,102864.94
2023-02-09T01:05:04.868Z,102870.78
2023-02-09T01:07:34.805Z,102887.88
2023-02-09T01:10:03.990Z,102883.34
2023-02-09T01:12:32.701Z,102880.19
2023-02-09T01:15:01.987Z,102873.63
2023-02-09T01:17:30.580Z,102858.25
2023-02-09T01:19:59.185Z,102863.00
2023-02-09T01:22:28.007Z,102866.63
2023-02-09T01:24:57.933Z,102872.78
2023-02-09T01:27:26.513Z,102866.47
2023-02-09T01:29:55.072Z,102864.06
2023-02-09T01:32:23.648Z,102872.19
2023-02-09T01:34:52.711Z,102863.16
2023-02-09T01:37:21.936Z,102876.22
2023-02-09T01:39:50.761Z,102883.25
2023-02-09T01:42:22.222Z,102878.94
2023-02-09T01:45:09.836Z,102877.22
2023-02-09T01:47:45.501Z,102875.22
2023-02-09T01:50:14.501Z,102875.13
2023-02-09T01:52:44.746Z,102866.44
2023-02-09T01:55:17.867Z,102865.72
2023-02-09T01:57:51.774Z,102870.81
2023-02-09T02:00:22.675Z,102862.28
2023-02-09T02:02:55.889Z,102867.41
2023-02-09T02:05:25.822Z,102863.84
2023-02-09T02:08:02.441Z,102852.66
2023-02-09T02:10:31.042Z,102856.56
2023-02-09T02:13:01.880Z,102868.72
2023-02-09T02:15:36.281Z,102873.19
2023-02-09T02:18:21.270Z,102875.03
2023-02-09T02:21:28.425Z,102867.22
2023-02-09T02:24:17.429Z,102872.84
2023-02-09T02:26:59.256Z,102873.78
2023-02-09T02:30:09.385Z,102866.81
2023-02-09T02:32:57.640Z,102859.06
2023-02-09T02:35:36.519Z,102864.94
2023-02-09T02:38:16.416Z,102862.03
2023-02-09T02:40:54.277Z,102853.94
2023-02-09T02:43:34.107Z,102869.44
2023-02-09T02:46:06.464Z,102874.13
2023-02-09T02:48:42.500Z,102863.97
2023-02-09T02:51:18.168Z,102861.94
2023-02-09T02:53:52.693Z,102867.06
2023-02-09T02:56:25.380Z,102869.56
2023-02-09T02:58:58.064Z,102863.78
2023-02-09T03:01:35.127Z,102870.75
2023-02-09T03:04:07.440Z,102868.00
2023-02-09T03:06:38.300Z,102866.41
2023-02-09T03:09:07.082Z,102862.34
2023-02-09T03:11:40.683Z,102853.03
2023-02-09T03:14:23.582Z,102850.06
2023-02-09T03:17:01.334Z,102852.75
2023-02-09T03:19:42.080Z,102855.59
2023-02-09T03:22:17.175Z,102860.69
2023-02-09T03:24:52.986Z,102857.38
2023-02-09T03:27:26.050Z,102862.41
2023-02-09T03:29:57.197Z,102872.84
2023-02-09T03:32:26.404Z,102860.25
2023-02-09T03:34:57.321Z,102856.03
2023-02-09T03:37:26.014Z,102849.09
2023-02-09T03:39:54.691Z,102845.97
2023-02-09T03:42:23.280Z,102848.25
2023-02-09T03:44:51.800Z,102843.63
2023-02-09T03:47:20.377Z,102852.53
2023-02-09T03:49:48.923Z,102849.19
2023-02-09T03:52:19.442Z,102842.91
2023-02-09T03:54:47.988Z,102837.19
2023-02-09T03:57:16.552Z,102834.31
2023-02-09T03:59:45.199Z,102831.88
2023-02-09T04:02:13.816Z,102826.66
2023-02-09T04:04:42.412Z,102827.09
2023-02-09T04:07:12.195Z,102830.63
2023-02-09T04:09:42.143Z,102829.63
2023-02-09T04:12:10.667Z,102825.34
2023-02-09T04:14:39.247Z,102822.41
2023-02-09T04:17:07.824Z,102821.50
2023-02-09T04:19:36.399Z,102831.38
2023-02-09T04:22:04.970Z,102820.88
2023-02-09T04:24:33.515Z,102817.69
2023-02-09T04:27:03.434Z,102811.75
2023-02-09T04:29:32.066Z,102813.47
2023-02-09T04:32:00.631Z,102812.66
2023-02-09T04:34:29.426Z,102804.84
2023-02-09T04:36:57.970Z,102810.22
2023-02-09T04:39:26.552Z,102807.28
2023-02-09T04:41:55.099Z,102798.19
2023-02-09T04:44:25.034Z,102800.69
2023-02-09T04:46:53.699Z,102799.31
2023-02-09T04:49:22.277Z,102809.56
2023-02-09T04:51:50.831Z,102801.31
2023-02-09T04:54:19.392Z,102802.31
2023-02-09T04:57:07.931Z,102791.75
2023-02-09T04:59:39.282Z,102798.06
2023-02-09T05:02:07.927Z,102803.63
2023-02-09T05:04:36.515Z,102803.63
2023-02-09T05:07:05.194Z,102794.78
2023-02-09T05:09:33.833Z,102795.19
2023-02-09T05:12:02.392Z,102800.28
2023-02-09T05:14:30.988Z,102804.06
2023-02-09T05:17:01.619Z,102812.94
2023-02-09T05:19:30.224Z,102812.47
2023-02-09T05:21:58.782Z,102812.53
2023-02-09T05:24:27.451Z,102806.19
2023-02-09T05:26:56.007Z,102808.91
2023-02-09T05:29:24.575Z,102802.31
2023-02-09T05:31:53.119Z,102801.88
2023-02-09T05:34:23.178Z,102794.47
2023-02-09T05:36:51.702Z,102795.41
2023-02-09T05:39:20.413Z,102784.38
2023-02-09T05:42:06.715Z,102781.19
2023-02-09T05:44:35.359Z,102771.53
2023-02-09T05:47:03.894Z,102765.41
2023-02-09T05:49:34.545Z,102768.69
2023-02-09T05:52:03.270Z,102780.75
2023-02-09T05:54:32.128Z,102773.78
2023-02-09T05:57:00.696Z,102771.28
2023-02-09T05:59:29.400Z,102769.34
2023-02-09T06:01:58.148Z,102776.31
2023-02-09T06:04:27.422Z,102785.28
2023-02-09T06:06:57.750Z,102791.44
2023-02-09T06:09:26.509Z,102787.81
2023-02-09T06:11:55.226Z,102795.69
2023-02-09T06:14:24.083Z,102801.88
2023-02-09T06:16:52.634Z,102808.16
2023-02-09T06:19:22.498Z,102802.59
2023-02-09T06:21:51.129Z,102810.13
2023-02-09T06:24:21.065Z,102810.91
2023-02-09T06:26:49.651Z,102807.75
2023-02-09T06:29:18.210Z,102801.41
2023-02-09T06:31:46.900Z,102803.28
2023-02-09T06:34:15.504Z,102806.88
2023-02-09T06:36:44.081Z,102808.38
2023-02-09T06:39:12.965Z,102805.13
2023-02-09T06:41:42.901Z,102812.13
2023-02-09T06:44:12.052Z,102815.28
2023-02-09T06:46:41.110Z,102814.38
2023-02-09T06:49:09.753Z,102823.25
2023-02-09T06:51:38.540Z,102826.94
2023-02-09T06:54:07.228Z,102835.78
2023-02-09T06:56:35.878Z,102832.47
2023-02-09T06:59:05.797Z,102820.75
2023-02-09T07:01:34.467Z,102825.22
2023-02-09T07:04:03.390Z,102827.84
2023-02-09T07:06:32.011Z,102824.28
2023-02-09T07:09:00.567Z,102826.81
2023-02-09T07:11:30.589Z,102834.66
2023-02-09T07:13:59.165Z,102822.09
2023-02-09T07:16:29.475Z,102833.00
2023-02-09T07:19:00.448Z,102831.56
2023-02-09T07:21:29.126Z,102839.31
2023-02-09T07:23:57.699Z,102842.63
2023-02-09T07:26:26.277Z,102847.28
2023-02-09T07:28:54.832Z,102842.44
2023-02-09T07:31:23.528Z,102849.53
2023-02-09T07:33:55.281Z,102842.81
2023-02-09T07:36:24.280Z,102834.34
2023-02-09T07:38:52.921Z,102832.19
2023-02-09T07:41:25.249Z,102824.81
2023-02-09T07:43:54.460Z,102824.34
2023-02-09T07:46:25.523Z,102828.28
2023-02-09T07:48:55.548Z,102842.72
2023-02-09T07:51:25.460Z,102844.25
2023-02-09T07:53:54.473Z,102825.19
2023-02-09T07:56:23.367Z,102838.50
2023-02-09T07:58:52.014Z,102836.91
2023-02-09T08:01:21.078Z,102835.03
2023-02-09T08:03:51.510Z,102845.25
2023-02-09T08:06:41.101Z,102842.38
2023-02-09T08:09:12.070Z,102852.03
2023-02-09T08:11:46.021Z,102857.97
2023-02-09T08:14:18.277Z,102852.28
2023-02-09T08:16:48.229Z,102850.69
2023-02-09T08:19:20.711Z,102871.09
2023-02-09T08:21:52.110Z,102873.56
2023-02-09T08:24:22.604Z,102874.47
2023-02-09T08:26:51.679Z,102873.19
2023-02-09T08:29:20.364Z,102875.16
2023-02-09T08:31:48.950Z,102885.94
2023-02-09T08:34:17.481Z,102881.22
2023-02-09T08:36:46.034Z,102886.16
2023-02-09T08:39:15.946Z,102886.22
2023-02-09T08:41:46.277Z,102887.28
2023-02-09T08:44:15.105Z,102878.03
2023-02-09T08:46:43.860Z,102887.91
2023-02-09T08:49:13.125Z,102887.41
2023-02-09T08:51:41.713Z,102888.94
2023-02-09T08:54:10.299Z,102893.00
2023-02-09T08:56:40.205Z,102892.97
2023-02-09T08:59:08.754Z,102890.75
2023-02-09T09:01:39.034Z,102895.19
2023-02-09T09:04:07.780Z,102897.31
2023-02-09T09:06:36.480Z,102896.34
2023-02-09T09:09:05.084Z,102904.00
2023-02-09T09:11:33.757Z,102900.31
2023-02-09T09:14:03.661Z,102918.84
2023-02-09T09:16:32.521Z,102904.00
2023-02-09T09:19:01.181Z,102894.09
2023-02-09T09:21:29.763Z,102901.00
2023-02-09T09:23:58.363Z,102926.03
2023-02-09T09:26:26.958Z,102913.41
2023-02-09T09:28:55.489Z,102913.41
2023-02-09T09:31:25.515Z,102917.19
2023-02-09T09:33:54.126Z,102910.69
2023-02-09T09:36:22.737Z,102924.16
2023-02-09T09:38:51.443Z,102912.53
2023-02-09T09:41:24.445Z,102913.91
2023-02-09T09:43:54.763Z,102913.16
2023-02-09T09:46:28.041Z,102907.84
2023-02-09T09:48:58.873Z,102898.94
2023-02-09T09:51:39.344Z,102902.19
2023-02-09T09:54:13.953Z,102895.56
2023-02-09T09:56:42.879Z,102868.94
2023-02-09T09:59:18.662Z,102868.00
2023-02-09T10:01:50.686Z,102864.41
2023-02-09T10:04:19.694Z,102856.72
2023-02-09T10:06:52.987Z,102847.63
2023-02-09T10:09:33.090Z,102875.16
2023-02-09T10:12:13.018Z,102873.91
2023-02-09T10:14:41.560Z,102872.25
2023-02-09T10:17:11.848Z,102862.41
2023-02-09T10:19:40.443Z,102871.31
2023-02-09T10:22:13.773Z,102884.13
2023-02-09T10:24:42.358Z,102887.66
2023-02-09T10:27:16.574Z,102892.69
2023-02-09T10:29:45.115Z,102885.72
2023-02-09T10:32:20.606Z,102889.06
2023-02-09T10:34:51.553Z,102870.66
2023-02-09T10:37:27.684Z,102870.53
2023-02-09T10:40:08.432Z,102878.91
2023-02-09T10:42:38.640Z,102868.38
2023-02-09T10:45:17.011Z,102872.31
2023-02-09T10:47:59.260Z,102872.78
2023-02-09T10:50:28.011Z,102878.44
2023-02-09T10:53:00.089Z,102886.91
2023-02-09T10:55:35.173Z,102881.38
2023-02-09T10:58:19.082Z,102879.72
2023-02-09T11:00:54.708Z,102868.09
2023-02-09T11:03:26.325Z,102869.88
2023-02-09T11:06:03.936Z,102870.56
2023-02-09T11:08:46.785Z,102860.34
2023-02-09T11:11:30.111Z,102870.59
2023-02-09T11:13:58.994Z,102874.09
2023-02-09T11:16:57.165Z,102869.19
2023-02-09T11:19:56.339Z,102884.34
2023-02-09T11:22:34.924Z,102873.25
2023-02-09T11:25:14.206Z,102876.44
2023-02-09T11:27:58.085Z,102882.84
2023-02-09T11:30:45.850Z,102878.03
2023-02-09T11:33:23.091Z,102863.47
2023-02-09T11:36:05.552Z,102874.31
2023-02-09T11:38:41.314Z,102865.94
2023-02-09T11:41:28.430Z,102863.72
2023-02-09T11:44:01.061Z,102857.94
2023-02-09T11:46:34.729Z,102858.97
2023-02-09T11:49:13.035Z,102855.38
2023-02-09T11:51:45.776Z,102857.63
2023-02-09T11:54:17.906Z,102855.34
2023-02-09T11:56:50.362Z,102854.38
2023-02-09T11:59:23.444Z,102853.34
2023-02-09T12:01:59.015Z,102839.59
2023-02-09T12:04:33.695Z,102828.63
2023-02-09T12:07:08.334Z,102828.28
2023-02-09T12:09:52.585Z,102831.03
2023-02-09T12:12:28.838Z,102838.38
2023-02-09T12:15:16.318Z,102842.25
2023-02-09T12:17:51.079Z,102837.41
2023-02-09T12:20:28.900Z,102836.50
2023-02-09T12:23:26.313Z,102840.81
2023-02-09T12:25:59.717Z,102851.53
2023-02-09T12:28:45.481Z,102856.31
2023-02-09T12:31:23.600Z,102857.44
2023-02-09T12:34:28.332Z,102857.25
2023-02-09T12:37:20.302Z,102859.91
2023-02-09T12:40:22.546Z,102859.09
2023-02-09T12:43:13.014Z,102852.03
2023-02-09T12:45:43.376Z,102864.81
2023-02-09T12:48:19.377Z,102855.28
2023-02-09T12:50:57.602Z,102862.28
2023-02-09T12:53:50.152Z,102849.81
2023-02-09T12:56:30.623Z,102852.75
2023-02-09T12:59:16.814Z,102848.34
2023-02-09T13:02:21.817Z,102843.19
2023-02-09T13:05:02.917Z,102818.91
2023-02-09T13:07:42.590Z,102827.03
2023-02-09T13:10:22.437Z,102825.31
2023-02-09T13:12:56.837Z,102826.19
2023-02-09T13:15:30.306Z,102820.94
2023-02-09T13:18:14.336Z,102826.41
2023-02-09T13:21:12.377Z,102821.78
2023-02-09T13:23:51.014Z,102826.91
2023-02-09T13:26:24.926Z,102815.53
2023-02-09T13:29:20.367Z,102806.75
2023-02-09T13:32:00.431Z,102804.56
2023-02-09T13:34:35.731Z,102810.91
2023-02-09T13:37:20.414Z,102808.91
2023-02-09T13:39:57.709Z,102820.41
2023-02-09T13:42:27.667Z,102818.97
2023-02-09T13:44:59.724Z,102820.56
2023-02-09T13:47:29.889Z,102814.09
2023-02-09T13:50:00.849Z,102817.53
2023-02-09T13:52:36.394Z,102836.53
2023-02-09T13:55:12.686Z,102836.56
2023-02-09T13:57:43.947Z,102824.97
2023-02-09T14:00:23.563Z,102833.47
2023-02-09T14:02:55.439Z,102826.47
2023-02-09T14:05:34.462Z,102826.19
2023-02-09T14:08:04.083Z,102819.69
2023-02-09T14:10:35.173Z,102819.28
2023-02-09T14:13:07.367Z,102807.16
2023-02-09T14:15:58.638Z,102817.81
2023-02-09T14:18:33.227Z,102817.50
2023-02-09T14:21:04.891Z,102815.78
2023-02-09T14:23:36.068Z,102821.97
2023-02-09T14:26:07.382Z,102820.16
2023-02-09T14:28:37.458Z,102828.47
2023-02-09T14:31:08.174Z,102824.72
2023-02-09T14:33:39.006Z,102823.72
2023-02-09T14:36:21.568Z,102825.94
2023-02-09T14:38:51.705Z,102831.00
2023-02-09T14:41:30.072Z,102830.88
2023-02-09T14:44:01.926Z,102819.56
2023-02-09T14:46:49.280Z,102816.09
2023-02-09T14:49:17.901Z,102826.19
2023-02-09T14:51:48.033Z,102826.59
2023-02-09T14:54:25.280Z,102831.66
2023-02-09T14:56:57.878Z,102835.94
2023-02-09T14:59:26.983Z,102827.88
2023-02-09T15:01:57.505Z,102819.28
2023-02-09T15:04:26.197Z,102829.38
2023-02-09T15:07:02.847Z,102834.84
2023-02-09T15:09:35.992Z,102827.63
2023-02-09T15:12:05.551Z,102825.41
2023-02-09T15:14:42.182Z,102822.56
2023-02-09T15:17:15.700Z,102833.34
2023-02-09T15:19:44.733Z,102832.06
2023-02-09T15:22:15.268Z,102833.59
2023-02-09T15:24:44.862Z,102833.47
2023-02-09T15:27:27.843Z,102839.19
2023-02-09T15:30:00.179Z,102838.72
2023-02-09T15:32:31.150Z,102845.41
2023-02-09T15:34:59.686Z,102831.22
2023-02-09T15:37:30.813Z,102841.72
2023-02-09T15:40:03.062Z,102836.13
2023-02-09T15:42:48.955Z,102852.38
2023-02-09T15:45:37.759Z,102853.50
2023-02-09T15:48:08.062Z,102848.94
2023-02-09T15:50:39.996Z,102850.94
2023-02-09T15:53:11.251Z,102854.81
2023-02-09T15:55:40.909Z,102856.97
2023-02-09T15:58:15.343Z,102856.38
2023-02-09T16:00:44.480Z,102865.03
2023-02-09T16:03:17.886Z,102872.50
2023-02-09T16:05:49.495Z,102872.34
2023-02-09T16:08:20.767Z,102876.84
2023-02-09T16:10:50.208Z,102884.88
2023-02-09T16:13:20.209Z,102898.41
2023-02-09T16:15:49.578Z,102902.16
2023-02-09T16:18:19.733Z,102899.41
2023-02-09T16:20:52.260Z,102898.66
2023-02-09T16:23:24.002Z,102910.38
2023-02-09T16:25:54.471Z,102905.63
2023-02-09T16:28:23.471Z,102915.00
2023-02-09T16:30:54.430Z,102917.72
2023-02-09T16:33:25.606Z,102922.06
2023-02-09T16:35:56.379Z,102925.66
2023-02-09T16:38:26.183Z,102927.94
2023-02-09T16:40:56.505Z,102936.88
2023-02-09T16:43:25.686Z,102939.16
2023-02-09T16:46:03.419Z,102938.59
2023-02-09T16:48:35.493Z,102938.00
2023-02-09T16:51:04.250Z,102937.28
2023-02-09T16:53:36.171Z,102939.31
2023-02-09T16:56:10.147Z,102946.34
2023-02-09T16:58:38.986Z,102954.00
2023-02-09T17:01:16.826Z,102947.25
2023-02-09T17:03:50.076Z,102943.06
2023-02-09T17:06:21.351Z,102943.91
2023-02-09T17:08:50.274Z,102941.16
2023-02-09T17:11:21.566Z,102941.44
2023-02-09T17:13:50.175Z,102943.91
2023-02-09T17:16:21.393Z,102956.19
2023-02-09T17:18:54.584Z,102944.94
2023-02-09T17:21:25.989Z,102946.53
2023-02-09T17:23:57.421Z,102949.56
2023-02-09T17:26:26.528Z,102955.75
2023-02-09T17:28:55.386Z,102956.31
2023-02-09T17:31:26.446Z,102957.78
2023-02-09T17:33:58.898Z,102962.56
2023-02-09T17:36:29.429Z,102960.25
2023-02-09T17:39:00.394Z,102966.44
2023-02-09T17:41:34.253Z,102965.72
2023-02-09T17:44:24.150Z,102965.28
2023-02-09T17:47:00.407Z,102962.41
2023-02-09T17:49:30.296Z,102971.91
2023-02-09T17:51:58.883Z,102971.91
2023-02-09T17:54:28.021Z,102973.50
2023-02-09T17:56:56.637Z,102979.84
2023-02-09T17:59:25.233Z,102982.84
2023-02-09T18:01:56.212Z,102983.84
2023-02-09T18:04:27.302Z,102993.47
2023-02-09T18:06:58.354Z,102992.63
2023-02-09T18:09:26.988Z,102999.25
2023-02-09T18:12:02.157Z,102997.66
2023-02-09T18:14:32.565Z,103004.16
2023-02-09T18:17:01.711Z,103005.75
2023-02-09T18:19:30.509Z,103007.91
2023-02-09T18:22:02.207Z,103007.06
2023-02-09T18:24:32.449Z,103008.22
2023-02-09T18:27:01.873Z,103002.31
2023-02-09T18:29:30.552Z,103006.19
2023-02-09T18:32:00.374Z,103012.41
2023-02-09T18:34:29.282Z,103019.63
2023-02-09T18:36:59.376Z,103017.28
2023-02-09T18:39:27.939Z,103012.50
2023-02-09T18:41:56.818Z,103016.97
2023-02-09T18:44:29.192Z,103017.81
2023-02-09T18:46:58.052Z,103025.75
2023-02-09T18:49:26.910Z,103029.19
2023-02-09T18:51:57.014Z,103037.84
2023-02-09T18:54:28.929Z,103031.66
2023-02-09T18:56:57.672Z,103036.88
2023-02-09T18:59:30.427Z,103038.06
2023-02-09T19:01:59.717Z,103044.63
2023-02-09T19:04:28.467Z,103039.50
2023-02-09T19:06:57.066Z,103040.19
2023-02-09T19:09:26.998Z,103043.38
2023-02-09T19:11:55.777Z,103041.47
2023-02-09T19:14:39.378Z,103035.91
2023-02-09T19:17:10.297Z,103047.00
2023-02-09T19:19:39.393Z,103045.28
2023-02-09T19:22:08.119Z,103055.25
2023-02-09T19:24:38.385Z,103049.84
2023-02-09T19:27:09.414Z,103058.22
2023-02-09T19:29:41.273Z,103061.09
2023-02-09T19:32:10.372Z,103062.13
2023-02-09T19:34:41.031Z,103068.75
2023-02-09T19:37:09.979Z,103065.44
2023-02-09T19:39:41.429Z,103070.22
2023-02-09T19:42:10.295Z,103065.34
2023-02-09T19:44:38.962Z,103067.34
2023-02-09T19:47:08.103Z,103072.06
2023-02-09T19:49:36.646Z,103079.00
2023-02-09T19:52:05.699Z,103073.31
2023-02-09T19:54:35.096Z,103083.28
2023-02-09T19:57:05.622Z,103084.19
2023-02-09T19:59:34.417Z,103083.78
2023-02-09T20:02:03.074Z,103085.78
2023-02-09T20:04:31.909Z,103082.84
2023-02-09T20:07:00.482Z,103087.78
2023-02-09T20:09:29.093Z,103091.53
2023-02-09T20:11:57.757Z,103095.56
2023-02-09T20:14:30.084Z,103096.44
2023-02-09T20:17:00.217Z,103097.13
2023-02-09T20:19:29.055Z,103091.63
2023-02-09T20:21:57.671Z,103090.88
2023-02-09T20:24:26.249Z,103089.69
2023-02-09T20:26:54.877Z,103091.84
2023-02-09T20:29:23.725Z,103102.78
2023-02-09T20:31:54.143Z,103109.44
2023-02-09T20:34:23.005Z,103102.22
2023-02-09T20:36:51.615Z,103098.31
2023-02-09T20:39:22.278Z,103107.09
2023-02-09T20:42:12.954Z,103111.56
2023-02-09T20:44:59.106Z,103101.47
2023-02-09T20:47:30.172Z,103108.69
2023-02-09T20:50:00.161Z,103120.69
2023-02-09T20:52:29.476Z,103109.13
2023-02-09T20:54:58.712Z,103115.19
2023-02-09T20:57:30.298Z,103100.56
2023-02-09T20:59:59.128Z,103109.28
2023-02-09T21:02:29.522Z,103114.44
2023-02-09T21:04:59.508Z,103100.63
2023-02-09T21:07:28.251Z,103102.34
2023-02-09T21:09:56.801Z,103098.16
2023-02-09T21:12:25.511Z,103099.44
2023-02-09T21:14:54.205Z,103098.63
2023-02-09T21:17:23.806Z,103100.81
2023-02-09T21:19:53.775Z,103104.78
2023-02-09T21:22:22.338Z,103101.06
2023-02-09T21:24:50.914Z,103110.81
2023-02-09T21:27:19.529Z,103102.88
2023-02-09T21:29:48.201Z,103107.69
2023-02-09T21:32:18.130Z,103105.50
2023-02-09T21:34:46.695Z,103101.81
2023-02-09T21:37:16.559Z,103111.00
2023-02-09T21:39:45.142Z,103102.19
2023-02-09T21:42:30.762Z,103104.72
2023-02-09T21:45:00.353Z,103107.22
2023-02-09T21:47:30.001Z,103103.19
2023-02-09T21:49:59.143Z,103108.25
2023-02-09T21:52:29.936Z,103104.03
2023-02-09T21:54:59.517Z,103108.66
2023-02-09T21:57:28.477Z,103104.22
2023-02-09T21:59:59.059Z,103103.34
2023-02-09T22:02:28.460Z,103098.50
2023-02-09T22:04:57.224Z,103097.78
2023-02-09T22:07:25.834Z,103096.97
2023-02-09T22:09:55.842Z,103099.72
2023-02-09T22:12:24.405Z,103105.03
2023-02-09T22:14:53.017Z,103104.69
2023-02-09T22:17:21.566Z,103108.00
2023-02-09T22:19:50.124Z,103109.72
2023-02-09T22:22:18.646Z,103114.91
2023-02-09T22:24:47.235Z,103115.97
2023-02-09T22:27:17.156Z,103114.88
2023-02-09T22:29:46.372Z,103110.94
2023-02-09T22:32:14.946Z,103109.16
2023-02-09T22:34:43.541Z,103104.38
2023-02-09T22:37:12.512Z,103116.50
2023-02-09T22:39:41.081Z,103113.03
2023-02-09T22:42:09.649Z,103114.56
2023-02-09T22:44:39.608Z,103119.38
2023-02-09T22:47:08.157Z,103119.34
2023-02-09T22:49:36.753Z,103117.00
2023-02-09T22:52:05.466Z,103117.94
2023-02-09T22:54:34.172Z,103128.59
2023-02-09T22:57:02.763Z,103126.91
2023-02-09T22:59:31.616Z,103127.25
2023-02-09T23:02:01.523Z,103122.34
2023-02-09T23:04:32.048Z,103118.06
2023-02-09T23:07:01.021Z,103123.63
2023-02-09T23:09:29.751Z,103118.00
2023-02-09T23:11:58.358Z,103125.91
2023-02-09T23:14:26.928Z,103128.25
2023-02-09T23:16:55.478Z,103135.94
2023-02-09T23:19:25.682Z,103135.03
2023-02-09T23:21:54.364Z,103140.22
2023-02-09T23:24:24.534Z,103141.59
2023-02-09T23:26:54.260Z,103134.34
2023-02-09T23:29:23.287Z,103142.03
2023-02-09T23:31:52.101Z,103149.66
2023-02-09T23:34:22.471Z,103150.66
2023-02-09T23:36:52.756Z,103148.69
2023-02-09T23:39:23.546Z,103153.28
2023-02-09T23:41:52.200Z,103154.72
2023-02-09T23:44:20.795Z,103156.88
2023-02-09T23:46:49.492Z,103150.06
2023-02-09T23:49:18.118Z,103165.50
2023-02-09T23:51:47.146Z,103164.25
2023-02-09T23:54:17.122Z,103165.28
2023-02-09T23:56:46.733Z,103165.78
2023-02-09T23:59:16.889Z,103169.44
